Time;durP1;ratioP1;P1;durP2;ratioP2;P2;SDS_P1;SDS_P2;PMS_P1;PMS_P2;Temp;Humidity;BMP_temperature;BMP_pressure;BME280_temperature;BME280_humidity;BME280_pressure;Samples;Min_cycle;Max_cycle;Signal;HPM_P1;HPM_P2
2023/05/20 00:01:09;;;;;;;26.60;16.23;;;;;;;-143.21;90.78;72675.06;5110740;28;20212;-79
2023/05/20 00:03:36;;;;;;;31.17;15.97;;;;;;;-143.21;90.50;72679.03;5110541;28;20235;-80
2023/05/20 00:06:03;;;;;;;26.53;15.13;;;;;;;-143.21;90.32;72673.09;5110164;28;20200;-78
2023/05/20 00:08:31;;;;;;;32.13;15.77;;;;;;;-143.21;89.78;72669.13;5110912;28;20283;-79
2023/05/20 00:10:59;;;;;;;25.40;13.00;;;;;;;-143.21;89.19;72663.16;5110562;28;20200;-78
2023/05/20 00:13:25;;;;;;;23.43;13.90;;;;;;;-143.21;89.01;72659.19;5110511;28;20196;-78
2023/05/20 00:15:53;;;;;;;24.57;15.10;;;;;;;-143.21;88.95;72655.25;5110551;28;20206;-79
2023/05/20 00:18:19;;;;;;;23.87;15.50;;;;;;;-143.21;88.74;72655.25;5110450;28;20236;-78
2023/05/20 00:20:46;;;;;;;24.37;14.80;;;;;;;-143.21;88.23;72657.22;5110488;28;20204;-78
2023/05/20 00:23:13;;;;;;;25.17;15.03;;;;;;;-143.21;88.25;72659.19;5110653;28;20625;-78
2023/05/20 00:25:41;;;;;;;22.43;15.10;;;;;;;-143.21;88.54;72665.16;5110293;28;20687;-78
2023/05/20 00:28:08;;;;;;;27.57;15.23;;;;;;;-143.21;88.47;72667.13;5110402;28;20216;-78
2023/05/20 00:30:35;;;;;;;23.20;15.13;;;;;;;-143.21;88.79;72669.13;5109749;28;20199;-79
2023/05/20 00:33:02;;;;;;;25.43;14.50;;;;;;;-143.21;89.09;72663.16;5110010;28;20204;-79
2023/05/20 00:35:29;;;;;;;23.67;14.57;;;;;;;-143.21;89.08;72661.19;5109540;28;20249;-78
2023/05/20 00:37:55;;;;;;;25.67;13.93;;;;;;;-143.21;89.05;72667.13;5109304;27;20207;-79
2023/05/20 00:40:23;;;;;;;24.63;13.90;;;;;;;-143.21;88.61;72673.09;5109756;28;20268;-79
2023/05/20 00:42:51;;;;;;;22.47;13.43;;;;;;;-143.21;88.71;72669.13;5109673;28;21000;-79
2023/05/20 00:45:19;;;;;;;25.87;13.30;;;;;;;-143.21;88.85;72669.13;5109478;28;20215;-75
2023/05/20 00:47:46;;;;;;;20.53;13.90;;;;;;;-143.21;88.69;72665.16;5105863;28;20569;-75
2023/05/20 00:50:13;;;;;;;23.97;13.97;;;;;;;-143.21;88.62;72659.19;5109337;28;20253;-75
2023/05/20 00:52:40;;;;;;;21.47;12.40;;;;;;;-143.21;88.25;72661.19;5108956;28;20216;-74
2023/05/20 00:55:07;;;;;;;24.80;13.37;;;;;;;-143.21;87.90;72667.13;5109177;28;20778;-74
2023/05/20 00:57:34;;;;;;;24.40;15.27;;;;;;;-143.21;88.08;72667.13;5109513;28;20208;-74
2023/05/20 01:00:03;;;;;;;26.27;15.97;;;;;;;-143.21;88.82;72673.09;5108961;28;20195;-74
2023/05/20 01:02:30;;;;;;;23.33;15.83;;;;;;;-143.21;88.87;72702.84;5108816;28;20207;-74
2023/05/20 01:04:57;;;;;;;22.07;15.23;;;;;;;-143.21;89.12;72720.69;5108631;28;20227;-74
2023/05/20 01:07:25;;;;;;;28.30;17.60;;;;;;;-143.21;90.45;72740.53;5108882;28;20215;-74
2023/05/20 01:09:53;;;;;;;31.50;17.67;;;;;;;-143.21;92.09;72754.41;5108876;28;20673;-74
2023/05/20 01:12:23;;;;;;;27.60;17.10;;;;;;;-143.21;93.01;72748.47;5109077;28;20690;-78
2023/05/20 01:14:55;;;;;;;27.83;17.20;;;;;;;-143.21;92.97;72742.50;5106588;28;20705;-78
2023/05/20 01:17:26;;;;;;;23.47;16.53;;;;;;;-143.21;92.92;72724.66;5108963;28;20204;-79
2023/05/20 01:19:55;;;;;;;26.87;16.27;;;;;;;-143.21;92.43;72718.69;5108917;28;20629;-78
2023/05/20 01:22:26;;;;;;;26.73;16.67;;;;;;;-143.21;92.13;72716.72;5109221;28;20195;-79
2023/05/20 01:24:53;;;;;;;27.30;17.00;;;;;;;-143.21;91.55;72718.69;5109282;28;20713;-79
2023/05/20 01:27:21;;;;;;;28.30;16.93;;;;;;;-143.21;91.45;72716.72;5108874;28;20200;-78
2023/05/20 01:29:49;;;;;;;27.43;16.07;;;;;;;-143.21;91.38;72712.75;5109391;28;20570;-78
2023/05/20 01:32:22;;;;;;;21.93;15.27;;;;;;;-143.21;90.86;72708.78;5106554;28;20199;-78
2023/05/20 01:34:51;;;;;;;32.77;16.23;;;;;;;-143.21;90.25;72694.91;5105973;28;20742;-78
2023/05/20 01:37:19;;;;;;;30.17;17.17;;;;;;;-143.21;90.11;72698.88;5108775;28;20575;-74
2023/05/20 01:39:49;;;;;;;25.13;14.63;;;;;;;-143.21;89.74;72688.94;5109194;28;20200;-74
2023/05/20 01:42:18;;;;;;;20.53;13.57;;;;;;;-143.21;89.45;72692.91;5107272;28;20196;-75
2023/05/20 01:44:45;;;;;;;20.27;13.00;;;;;;;-143.21;89.06;72706.81;5104892;28;20220;-74
2023/05/20 01:47:11;;;;;;;22.50;13.17;;;;;;;-143.21;89.24;72700.84;5108642;28;20208;-74
2023/05/20 01:49:38;;;;;;;20.17;13.80;;;;;;;-143.21;89.36;72708.78;5109061;28;20343;-74
2023/05/20 01:52:05;;;;;;;26.33;14.00;;;;;;;-143.21;89.53;72704.81;5112673;28;20272;-74
2023/05/20 01:54:32;;;;;;;26.03;15.40;;;;;;;-143.21;89.76;72704.81;5112782;28;20291;-73
2023/05/20 01:57:01;;;;;;;32.60;16.73;;;;;;;-143.21;90.03;72716.72;5112810;28;20256;-73
2023/05/20 01:59:28;;;;;;;30.23;15.83;;;;;;;-143.21;90.05;72708.78;5112190;28;20196;-73
2023/05/20 02:01:55;;;;;;;27.13;15.30;;;;;;;-143.21;89.69;72712.75;5111965;28;20656;-74
2023/05/20 02:04:22;;;;;;;24.13;14.83;;;;;;;-143.21;89.58;72708.78;5112266;28;20223;-74
2023/05/20 02:06:49;;;;;;;20.40;13.73;;;;;;;-143.21;89.48;72712.75;5109318;28;20214;-74
2023/05/20 02:09:15;;;;;;;27.17;13.23;;;;;;;-143.21;89.06;72710.78;5108672;28;20207;-75
2023/05/20 02:11:42;;;;;;;22.17;13.93;;;;;;;-143.21;89.52;72716.72;5112007;28;20212;-74
2023/05/20 02:14:10;;;;;;;23.00;14.43;;;;;;;-143.21;89.65;72714.72;5112397;28;20261;-74
2023/05/20 02:16:37;;;;;;;19.87;12.93;;;;;;;-143.21;89.66;72712.75;5111498;28;20208;-75
2023/05/20 02:19:04;;;;;;;18.77;11.33;;;;;;;-143.21;89.24;72712.75;5111630;28;20240;-74
2023/05/20 02:21:31;;;;;;;20.83;12.33;;;;;;;-143.21;89.63;72720.69;5111763;28;20195;-75
2023/05/20 02:23:57;;;;;;;19.43;11.53;;;;;;;-143.21;90.00;72724.66;5111263;28;20253;-74
2023/05/20 02:26:24;;;;;;;20.23;11.57;;;;;;;-143.21;90.41;72724.66;5111637;28;20196;-74
2023/05/20 02:28:51;;;;;;;20.83;12.17;;;;;;;-143.21;90.00;72720.69;5112326;28;20290;-74
2023/05/20 02:31:20;;;;;;;16.53;11.90;;;;;;;-143.21;90.42;72728.63;5109660;28;20249;-75
2023/05/20 02:33:46;;;;;;;22.07;12.63;;;;;;;-143.21;89.79;72754.41;5112806;28;20200;-76
2023/05/20 02:36:16;;;;;;;23.27;12.30;;;;;;;-143.21;90.23;72796.06;5112184;28;20208;-74
2023/05/20 02:38:42;;;;;;;18.43;12.37;;;;;;;-143.21;92.08;72823.81;5112131;28;20663;-76
2023/05/20 02:41:09;;;;;;;21.77;12.77;;;;;;;-143.21;93.16;72819.84;5111924;28;20212;-75
2023/05/20 02:43:36;;;;;;;21.13;12.93;;;;;;;-143.21;93.99;72815.88;5111650;28;20256;-74
2023/05/20 02:46:03;;;;;;;19.60;12.10;;;;;;;-143.21;94.39;72807.97;5112236;28;20227;-75
2023/05/20 02:48:31;;;;;;;18.43;12.87;;;;;;;-143.21;93.94;72798.03;5111547;28;20207;-74
2023/05/20 02:50:59;;;;;;;23.20;12.90;;;;;;;-143.21;93.20;72784.16;5112425;28;20276;-75
2023/05/20 02:53:26;;;;;;;18.27;12.23;;;;;;;-143.21;92.94;72776.22;5111911;28;20411;-74
2023/05/20 02:55:53;;;;;;;22.43;12.57;;;;;;;-143.21;92.68;72780.19;5111792;28;20196;-74
2023/05/20 02:58:25;;;;;;;21.90;12.13;;;;;;;-143.21;92.86;72782.16;5111695;28;20200;-74
2023/05/20 03:00:52;;;;;;;19.07;11.70;;;;;;;-143.21;93.01;72776.22;5111321;28;20204;-76
2023/05/20 03:03:18;;;;;;;21.57;12.77;;;;;;;-143.21;92.29;72772.25;5112174;28;20196;-75
2023/05/20 03:05:47;;;;;;;21.17;11.90;;;;;;;-143.21;92.30;72790.09;5108661;28;20249;-74
2023/05/20 03:08:13;;;;;;;24.63;12.63;;;;;;;-143.21;92.83;72786.13;5113116;28;20210;-79
2023/05/20 03:10:40;;;;;;;20.27;11.60;;;;;;;-143.21;92.31;72780.19;5111003;28;20295;-75
2023/05/20 03:13:10;;;;;;;23.73;12.53;;;;;;;-143.21;92.21;72788.13;5110633;28;20826;-75
2023/05/20 03:15:37;;;;;;;23.27;11.87;;;;;;;-143.21;91.66;72790.09;5110740;28;20215;-75
2023/05/20 03:18:04;;;;;;;19.63;11.80;;;;;;;-143.21;91.78;72796.06;5110247;28;20232;-75
2023/05/20 03:20:31;;;;;;;20.60;12.63;;;;;;;-143.21;91.63;72796.06;5110627;28;20272;-75
2023/05/20 03:22:59;;;;;;;19.90;12.17;;;;;;;-143.21;90.62;72790.09;5110661;28;20200;-75
2023/05/20 03:25:26;;;;;;;20.70;11.87;;;;;;;-143.21;90.85;72792.09;5110071;28;20254;-75
2023/05/20 03:27:53;;;;;;;22.47;12.43;;;;;;;-143.21;91.00;72792.09;5100651;28;20204;-75
2023/05/20 03:30:20;;;;;;;25.80;13.57;;;;;;;-143.21;90.89;72784.16;5106675;28;20200;-75
2023/05/20 03:32:47;;;;;;;22.53;13.33;;;;;;;-143.21;91.33;72782.16;5105599;28;20570;-75
2023/05/20 03:35:14;;;;;;;23.20;13.40;;;;;;;-143.21;91.51;72780.19;5108659;28;20200;-75
2023/05/20 03:37:40;;;;;;;19.67;11.57;;;;;;;-143.21;91.34;72774.25;5109009;28;21587;-74
2023/05/20 03:40:10;;;;;;;20.77;12.70;;;;;;;-143.21;91.20;72776.22;5110258;28;20241;-80
2023/05/20 03:42:37;;;;;;;20.83;13.30;;;;;;;-143.21;91.08;72778.22;5109899;28;20281;-80
2023/05/20 03:45:05;;;;;;;34.20;18.60;;;;;;;-143.21;90.67;72778.22;5110010;28;20755;-75
2023/05/20 03:47:31;;;;;;;30.53;18.87;;;;;;;-143.21;90.63;72780.19;5111253;28;20580;-78
2023/05/20 03:49:58;;;;;;;32.10;20.77;;;;;;;-143.21;90.66;72784.16;5111501;28;20196;-78
2023/05/20 03:52:25;;;;;;;32.43;20.43;;;;;;;-143.21;90.68;72786.13;5111226;28;20203;-80
2023/05/20 03:54:52;;;;;;;29.23;20.13;;;;;;;-143.21;90.17;72778.22;5110889;28;20200;-80
2023/05/20 03:57:20;;;;;;;30.67;19.93;;;;;;;-143.21;90.88;72784.16;5111496;27;20265;-80
2023/05/20 03:59:47;;;;;;;32.10;20.70;;;;;;;-143.21;90.78;72819.84;5108524;28;20212;-80
2023/05/20 04:02:14;;;;;;;36.03;19.53;;;;;;;-143.21;90.92;72851.59;5111902;28;20200;-80
2023/05/20 04:04:42;;;;;;;36.13;21.57;;;;;;;-143.21;92.89;72875.41;5112062;28;20273;-81
2023/05/20 04:07:09;;;;;;;33.37;21.13;;;;;;;-143.21;94.86;72871.44;5111462;28;20212;-80
2023/05/20 04:09:36;;;;;;;41.03;21.17;;;;;;;-143.21;94.86;72857.53;5111804;28;20268;-80
2023/05/20 04:12:02;;;;;;;32.57;20.43;;;;;;;-143.21;94.73;72849.59;5111383;28;20200;-80
2023/05/20 04:14:33;;;;;;;37.13;21.77;;;;;;;-143.21;94.91;72835.72;5110768;28;20210;-79
2023/05/20 04:16:59;;;;;;;33.30;20.93;;;;;;;-143.21;94.83;72829.78;5110992;28;20287;-79
2023/05/20 04:19:27;;;;;;;32.70;20.17;;;;;;;-143.21;93.96;72811.94;5110770;28;20255;-79
2023/05/20 04:21:54;;;;;;;29.37;20.93;;;;;;;-143.21;94.03;72802.00;5111213;28;20283;-78
2023/05/20 04:24:24;;;;;;;31.50;18.83;;;;;;;-143.21;94.20;72798.03;5110826;28;20203;-76
2023/05/20 04:26:50;;;;;;;31.90;18.77;;;;;;;-143.21;94.07;72790.09;5110195;28;20196;-76
2023/05/20 04:29:18;;;;;;;30.33;17.77;;;;;;;-143.21;94.19;72778.22;5110611;28;20215;-76
2023/05/20 04:31:46;;;;;;;34.43;17.90;;;;;;;-143.21;94.41;72772.25;5106700;28;20730;-76
2023/05/20 04:34:13;;;;;;;29.37;17.47;;;;;;;-143.21;93.57;72764.31;5110238;28;20282;-78
2023/05/20 04:36:40;;;;;;;27.40;17.57;;;;;;;-143.21;93.12;72758.38;5110300;28;20204;-78
2023/05/20 04:39:07;;;;;;;29.47;17.33;;;;;;;-143.21;92.65;72746.47;5109791;28;20246;-79
2023/05/20 04:41:35;;;;;;;26.73;16.73;;;;;;;-143.21;92.51;72744.50;5110621;28;20592;-79
2023/05/20 04:44:02;;;;;;;28.60;17.53;;;;;;;-143.21;92.56;72738.53;5110329;28;20202;-79
2023/05/20 04:46:30;;;;;;;36.23;17.70;;;;;;;-143.21;92.53;72734.56;5110103;28;20708;-79
2023/05/20 04:48:58;;;;;;;35.73;18.30;;;;;;;-143.21;92.50;72730.59;5109960;28;20196;-78
2023/05/20 04:51:25;;;;;;;34.53;20.13;;;;;;;-143.21;92.16;72720.69;5109519;28;20609;-79
2023/05/20 04:53:52;;;;;;;35.27;19.90;;;;;;;-143.21;92.28;72716.72;5110017;28;20211;-78
2023/05/20 04:56:19;;;;;;;35.97;18.17;;;;;;;-143.21;92.40;72714.72;5109519;28;20618;-78
2023/05/20 04:58:46;;;;;;;36.37;18.30;;;;;;;-143.21;92.69;72708.78;5110601;28;20260;-78
2023/05/20 05:01:13;;;;;;;25.67;16.77;;;;;;;-143.21;93.15;72704.81;5110109;28;20211;-77
2023/05/20 05:03:39;;;;;;;31.33;17.57;;;;;;;-143.21;92.74;72696.88;5109851;28;20212;-78
2023/05/20 05:06:08;;;;;;;28.77;17.07;;;;;;;-143.21;92.30;72688.94;5109576;28;20305;-77
2023/05/20 05:08:34;;;;;;;29.10;16.27;;;;;;;-143.21;91.94;72685.00;5110014;28;20207;-77
2023/05/20 05:11:01;;;;;;;31.13;16.43;;;;;;;-143.21;91.74;72675.06;5109075;28;20204;-77
2023/05/20 05:13:28;;;;;;;28.17;17.27;;;;;;;-143.21;91.43;72673.09;5108809;28;20277;-80
2023/05/20 05:15:59;;;;;;;28.97;17.47;;;;;;;-143.21;90.46;72655.25;5096820;28;20188;-75
2023/05/20 05:18:26;;;;;;;26.30;16.17;;;;;;;-143.21;89.29;72671.09;5106647;28;20342;-75
2023/05/20 05:20:59;;;;;;;31.50;17.00;;;;;;;-143.21;88.45;72683.00;5107897;28;20203;-75
2023/05/20 05:23:28;;;;;;;36.07;17.43;;;;;;;-143.21;90.49;72690.94;5107765;28;20280;-75
2023/05/20 05:25:55;;;;;;;28.77;17.40;;;;;;;-143.21;91.34;72681.03;5106995;28;20254;-74
2023/05/20 05:28:21;;;;;;;27.23;16.50;;;;;;;-143.21;92.10;72669.13;5107827;28;20628;-75
2023/05/20 05:30:48;;;;;;;24.93;15.27;;;;;;;-143.21;91.66;72655.25;5105949;28;20265;-75
2023/05/20 05:33:16;;;;;;;23.37;14.97;;;;;;;-143.21;91.33;72639.38;5105630;28;20204;-75
2023/05/20 05:35:43;;;;;;;23.17;15.23;;;;;;;-143.21;91.11;72615.56;5108867;28;20204;-75
2023/05/20 05:38:10;;;;;;;22.43;14.50;;;;;;;-143.21;90.48;72597.72;5108154;28;20959;-75
2023/05/20 05:40:38;;;;;;;24.03;15.00;;;;;;;-143.21;89.32;72583.84;5108401;28;20295;-76
2023/05/20 05:43:05;;;;;;;25.40;14.03;;;;;;;-143.21;88.53;72565.97;5108688;28;20204;-76
2023/05/20 05:45:32;;;;;;;20.83;13.80;;;;;;;-143.21;88.02;72554.09;5108258;28;20216;-75
2023/05/20 05:47:58;;;;;;;23.70;14.90;;;;;;;-143.21;87.42;72542.19;5108673;28;20223;-76
2023/05/20 05:50:25;;;;;;;22.23;13.83;;;;;;;-143.21;86.83;72534.25;5108555;28;20261;-76
2023/05/20 05:52:52;;;;;;;25.50;14.83;;;;;;;-143.21;86.44;72520.38;5108735;28;20206;-76
2023/05/20 05:55:19;;;;;;;23.33;14.17;;;;;;;-143.21;84.71;72498.56;5108791;28;20260;-76
2023/05/20 05:57:48;;;;;;;23.67;13.40;;;;;;;-143.21;83.44;72486.66;5108828;28;20207;-75
2023/05/20 06:00:16;;;;;;;21.17;14.43;;;;;;;-143.21;83.48;72474.75;5105141;28;20658;-75
2023/05/20 06:02:43;;;;;;;27.43;14.57;;;;;;;-143.21;83.09;72472.78;5109014;28;20568;-75
2023/05/20 06:05:10;;;;;;;24.43;14.63;;;;;;;-143.21;83.07;72454.91;5108775;28;20220;-86
2023/05/20 06:07:37;;;;;;;22.77;14.43;;;;;;;-143.21;83.21;72450.97;5108245;28;20207;-76
2023/05/20 06:10:04;;;;;;;30.50;15.17;;;;;;;-143.21;82.33;72421.22;5108338;28;20203;-82
2023/05/20 06:12:31;;;;;;;23.83;14.80;;;;;;;-143.21;82.56;72413.28;5108396;28;20199;-81
2023/05/20 06:14:59;;;;;;;30.23;15.73;;;;;;;-143.21;82.19;72405.34;5108509;28;20662;-79
2023/05/20 06:17:26;;;;;;;24.93;14.97;;;;;;;-143.21;81.66;72397.41;5109170;28;20288;-79
2023/05/20 06:19:53;;;;;;;25.20;15.90;;;;;;;-143.21;81.23;72391.47;5109241;28;20235;-79
2023/05/20 06:22:20;;;;;;;21.70;14.03;;;;;;;-143.21;80.71;72385.50;5108863;28;20544;-79
2023/05/20 06:24:47;;;;;;;19.93;13.00;;;;;;;-143.21;79.59;72367.66;5108624;28;20655;-79
2023/05/20 06:27:14;;;;;;;18.43;12.40;;;;;;;-143.21;78.67;72359.72;5107572;28;20702;-80
2023/05/20 06:29:40;;;;;;;21.07;12.23;;;;;;;-143.21;78.61;72349.81;5109087;28;20290;-80
2023/05/20 06:32:09;;;;;;;19.23;12.53;;;;;;;-143.21;78.31;72331.97;5108305;28;20686;-76
2023/05/20 06:34:35;;;;;;;21.43;12.57;;;;;;;-143.21;77.82;72320.06;5108627;28;20200;-77
2023/05/20 06:37:02;;;;;;;18.20;11.53;;;;;;;-143.21;77.45;72308.16;5111028;28;20267;-76
2023/05/20 06:39:29;;;;;;;18.07;11.23;;;;;;;-143.21;75.81;72288.34;5111984;28;20623;-77
2023/05/20 06:41:56;;;;;;;21.27;12.03;;;;;;;-143.21;75.42;72278.41;5112419;28;20196;-76
2023/05/20 06:44:22;;;;;;;16.60;10.23;;;;;;;-143.21;75.64;72264.53;5111874;28;20649;-78
2023/05/20 06:46:49;;;;;;;19.27;10.43;;;;;;;-143.21;74.46;72252.63;5112249;28;20223;-78
2023/05/20 06:49:17;;;;;;;18.70;10.97;;;;;;;-143.21;74.12;72234.78;5112758;28;20209;-77
2023/05/20 06:51:44;;;;;;;19.10;10.57;;;;;;;-143.21;73.06;72216.94;5112222;28;20200;-77
2023/05/20 06:54:11;;;;;;;16.63;10.83;;;;;;;-143.21;72.99;72211.00;5111776;28;20225;-77
2023/05/20 06:56:38;;;;;;;21.17;10.90;;;;;;;-143.21;72.52;72209.00;5111411;28;20200;-78
2023/05/20 06:59:05;;;;;;;23.17;10.77;;;;;;;-143.21;72.05;72197.13;5111969;28;20196;-77
2023/05/20 07:01:32;;;;;;;16.23;9.97;;;;;;;-143.21;71.81;72191.16;5111635;28;20200;-77
2023/05/20 07:03:58;;;;;;;16.00;9.33;;;;;;;-143.21;71.63;72185.22;5111509;28;20200;-77
2023/05/20 07:06:26;;;;;;;14.53;9.67;;;;;;;-143.21;70.50;72171.34;5111387;28;20285;-78
2023/05/20 07:08:53;;;;;;;16.33;9.97;;;;;;;-143.21;70.41;72161.41;5111476;28;20200;-77
2023/05/20 07:11:20;;;;;;;13.43;9.33;;;;;;;-143.21;69.85;72139.59;5111562;28;20196;-78
2023/05/20 07:13:47;;;;;;;16.87;9.47;;;;;;;-143.21;70.26;72137.63;5112151;28;20303;-78
2023/05/20 07:16:13;;;;;;;10.80;8.20;;;;;;;-143.21;69.04;72155.47;5111774;28;20199;-78
2023/05/20 07:18:40;;;;;;;10.20;7.77;;;;;;;-143.21;68.33;72175.31;5111392;28;20235;-77
2023/05/20 07:21:07;;;;;;;12.77;8.93;;;;;;;-143.21;69.84;72169.34;5112317;28;20223;-81
2023/05/20 07:23:35;;;;;;;16.97;8.87;;;;;;;-143.21;69.69;72165.38;5112656;28;20207;-81
2023/05/20 07:26:02;;;;;;;12.13;8.00;;;;;;;-143.21;69.00;72147.53;5112459;28;20247;-82
2023/05/20 07:28:29;;;;;;;12.83;8.50;;;;;;;-143.21;68.00;72119.78;5112466;28;20655;-81
2023/05/20 07:30:56;;;;;;;12.00;8.47;;;;;;;-143.21;67.58;72097.97;5112422;28;20200;-81
2023/05/20 07:33:23;;;;;;;12.07;8.10;;;;;;;-143.21;66.43;72074.16;5112357;28;20271;-81
2023/05/20 07:35:53;;;;;;;11.50;8.23;;;;;;;-143.21;65.97;72056.31;5111403;28;20199;-81
2023/05/20 07:38:20;;;;;;;14.70;7.83;;;;;;;-143.21;65.33;72040.44;5111521;28;20214;-79
2023/05/20 07:40:48;;;;;;;13.07;7.80;;;;;;;-143.21;65.16;72034.50;5113207;28;20643;-80
2023/05/20 07:43:15;;;;;;;9.95;7.60;;;;;;;-143.21;62.44;72012.69;5108853;28;20196;-80
2023/05/20 07:45:42;;;;;;;10.77;7.80;;;;;;;-143.21;62.70;72004.75;5111963;28;20318;-79
2023/05/20 07:48:09;;;;;;;10.10;7.38;;;;;;;-143.21;62.97;72002.78;5110997;28;20215;-79
2023/05/20 07:50:36;;;;;;;10.63;7.90;;;;;;;-143.21;62.17;71990.88;5112171;28;20265;-80
2023/05/20 07:53:03;;;;;;;10.55;7.28;;;;;;;-143.21;61.23;71971.06;5111665;28;20627;-80
2023/05/20 07:55:31;;;;;;;12.38;7.30;;;;;;;-143.21;61.19;71961.13;5111832;28;20265;-81
2023/05/20 07:57:59;;;;;;;14.20;7.03;;;;;;;-143.21;59.77;71955.19;5092696;22;20225;-81
2023/05/20 08:00:26;;;;;;;9.52;7.05;;;;;;;-143.21;60.57;71949.25;5100737;28;20226;-80
2023/05/20 08:02:52;;;;;;;15.43;8.18;;;;;;;-143.21;61.07;71939.31;5080898;28;20205;-80
2023/05/20 08:05:21;;;;;;;12.50;7.57;;;;;;;-143.21;61.36;71941.31;5087429;28;20200;-80
2023/05/20 08:07:48;;;;;;;11.02;7.75;;;;;;;-143.21;61.15;71935.34;5087528;28;20252;-79
2023/05/20 08:10:15;;;;;;;8.77;7.10;;;;;;;-143.21;60.87;71921.47;5086787;28;20204;-80
2023/05/20 08:12:42;;;;;;;10.75;7.43;;;;;;;-143.21;61.01;71909.56;5098255;28;20200;-80
2023/05/20 08:15:11;;;;;;;13.30;7.30;;;;;;;-143.21;60.29;71891.72;5084293;28;20212;-80
2023/05/20 08:17:38;;;;;;;12.48;7.43;;;;;;;-143.21;60.15;71887.78;5091182;28;20247;-80
2023/05/20 08:20:07;;;;;;;12.95;8.05;;;;;;;-143.21;60.94;71879.84;5080779;28;20287;-80
2023/05/20 08:22:34;;;;;;;13.98;7.72;;;;;;;-143.21;60.01;71867.94;5091621;28;20205;-80
2023/05/20 08:25:01;;;;;;;15.98;7.82;;;;;;;-143.21;60.09;71865.97;5084970;28;20240;-80
2023/05/20 08:27:28;;;;;;;11.68;7.30;;;;;;;-143.21;59.94;71862.00;5087334;28;20221;-80
2023/05/20 08:29:55;;;;;;;11.95;7.53;;;;;;;-143.21;60.28;71856.03;5092047;28;20207;-80
2023/05/20 08:32:23;;;;;;;11.85;7.88;;;;;;;-143.21;60.83;71838.19;5086998;28;20584;-80
2023/05/20 08:34:50;;;;;;;14.32;8.00;;;;;;;-143.21;59.16;71842.16;5093909;28;20196;-81
2023/05/20 08:37:16;;;;;;;10.55;7.68;;;;;;;-143.21;59.62;71836.22;5076111;28;20758;-80
2023/05/20 08:39:45;;;;;;;11.98;7.55;;;;;;;-143.21;59.68;71826.28;5095991;28;20204;-80
2023/05/20 08:42:12;;;;;;;12.73;7.35;;;;;;;-143.21;58.58;71820.34;5095826;28;20201;-80
2023/05/20 08:44:41;;;;;;;11.27;7.32;;;;;;;-143.21;59.49;71814.41;5089684;28;20205;-80
2023/05/20 08:47:09;;;;;;;11.15;7.50;;;;;;;-143.21;59.47;71804.47;5082876;28;20232;-80
2023/05/20 08:49:37;;;;;;;11.23;7.22;;;;;;;-143.21;60.15;71796.56;5090306;28;20682;-80
2023/05/20 08:52:05;;;;;;;10.55;7.25;;;;;;;-143.21;60.00;71780.69;5084738;28;20205;-81
2023/05/20 08:54:43;;;;;;;9.68;7.03;;;;;;;-143.21;60.40;71778.72;5089177;28;20694;-80
2023/05/20 08:57:12;;;;;;;9.70;7.03;;;;;;;-143.21;58.56;71756.91;5079156;28;20269;-80
2023/05/20 08:59:42;;;;;;;11.35;7.38;;;;;;;-143.21;57.57;71758.88;5090865;28;20328;-81
2023/05/20 09:02:09;;;;;;;12.82;7.47;;;;;;;-143.21;58.05;71745.00;5085300;28;20663;-79
2023/05/20 09:04:38;;;;;;;10.02;7.75;;;;;;;-143.21;57.87;71741.03;5084836;28;20201;-80
2023/05/20 09:07:05;;;;;;;10.57;7.70;;;;;;;-143.21;58.19;71733.09;5087895;28;20333;-79
2023/05/20 09:09:33;;;;;;;13.23;7.60;;;;;;;-143.21;59.29;71711.28;5093855;28;20200;-80
2023/05/20 09:12:01;;;;;;;12.45;7.30;;;;;;;-143.21;58.10;71701.38;5091977;28;20193;-80
2023/05/20 09:14:29;;;;;;;9.60;6.93;;;;;;;-143.21;57.98;71703.34;5088944;28;20200;-80
2023/05/20 09:16:56;;;;;;;9.68;7.32;;;;;;;-143.21;58.18;71713.28;5082364;28;20659;-80
2023/05/20 09:19:23;;;;;;;10.10;7.15;;;;;;;-143.21;57.27;71701.38;5084555;28;20206;-81
2023/05/20 09:21:52;;;;;;;12.88;6.60;;;;;;;-143.21;57.87;71699.41;5090342;28;20579;-77
2023/05/20 09:24:23;;;;;;;7.60;4.93;;;;;;;-143.21;66.91;71665.69;5083893;28;20236;-78
2023/05/20 09:26:50;;;;;;;14.73;6.63;;;;;;;-143.21;62.65;71641.91;5085565;28;20224;-83
2023/05/20 09:29:18;;;;;;;10.45;7.20;;;;;;;-143.21;57.21;71663.72;5102226;28;20272;-82
2023/05/20 09:31:45;;;;;;;15.73;7.50;;;;;;;-143.21;58.27;71667.66;5101646;28;20204;-83
2023/05/20 09:34:12;;;;;;;16.48;7.40;;;;;;;-143.21;58.18;71659.75;5092439;28;20265;-83
2023/05/20 09:36:40;;;;;;;10.07;7.40;;;;;;;-143.21;57.39;71661.72;5091371;28;20559;-83
2023/05/20 09:39:12;;;;;;;10.15;7.35;;;;;;;-143.21;58.84;71655.78;5092717;28;20197;-84
2023/05/20 09:41:55;;;;;;;10.10;6.70;;;;;;;-143.21;57.92;71633.97;5088368;28;20197;-83
2023/05/20 09:44:22;;;;;;;10.25;6.97;;;;;;;-143.21;56.59;71608.19;5094042;28;20228;-83
2023/05/20 09:46:51;;;;;;;12.30;7.75;;;;;;;-143.21;56.95;71588.38;5093065;28;20307;-83
2023/05/20 09:49:20;;;;;;;12.93;7.43;;;;;;;-143.21;56.84;71574.47;5089820;28;20545;-86
2023/05/20 09:51:49;;;;;;;9.98;6.70;;;;;;;-143.21;55.51;71558.63;5091508;28;20204;-85
2023/05/20 09:54:19;;;;;;;16.05;7.18;;;;;;;-143.21;55.37;71542.75;5087029;28;20667;-84
2023/05/20 09:56:47;;;;;;;11.38;7.25;;;;;;;-143.21;54.99;71534.81;5101521;28;20748;-85
2023/05/20 09:59:16;;;;;;;11.63;7.22;;;;;;;-143.21;54.72;71511.03;5095394;28;20198;-85
2023/05/20 10:01:44;;;;;;;12.23;6.82;;;;;;;-143.21;55.01;71503.09;5097958;28;20228;-86
2023/05/20 10:04:13;;;;;;;11.57;6.95;;;;;;;-143.21;54.01;71493.19;5092203;28;20207;-86
2023/05/20 10:07:19;;;;;;;13.27;7.57;;;;;;;-143.21;53.35;71483.28;5091699;28;20220;-86
2023/05/20 10:10:00;;;;;;;13.15;7.18;;;;;;;-143.21;53.20;71453.53;5073865;28;20205;-87
2023/05/20 10:12:39;;;;;;;11.43;7.10;;;;;;;-143.21;53.22;71431.72;5094500;28;20202;-81
2023/05/20 10:15:16;;;;;;;11.63;7.40;;;;;;;-143.21;53.10;71407.94;5087002;28;20188;-79
2023/05/20 10:17:54;;;;;;;8.70;6.95;;;;;;;-143.21;52.13;71386.13;5086116;28;20246;-80
2023/05/20 10:20:21;;;;;;;11.52;7.18;;;;;;;-143.21;51.40;71362.34;5086819;28;20193;-79
2023/05/20 10:22:56;;;;;;;9.32;6.25;;;;;;;-143.21;49.27;71354.41;5090759;28;20204;-80
2023/05/20 10:25:28;;;;;;;7.57;6.22;;;;;;;-143.21;50.37;71376.22;5088069;28;20295;-80
2023/05/20 10:28:07;;;;;;;10.27;6.40;;;;;;;-143.21;50.04;71358.38;5092530;28;20205;-80
2023/05/20 10:30:34;;;;;;;7.03;5.70;;;;;;;-143.21;49.31;71334.59;5085774;28;20199;-80
2023/05/20 10:33:05;;;;;;;11.43;6.22;;;;;;;-143.21;49.05;71316.75;5087071;28;20198;-80
2023/05/20 10:35:32;;;;;;;8.05;5.95;;;;;;;-143.21;49.06;71306.81;5086913;28;20667;-80
2023/05/20 10:38:09;;;;;;;10.43;5.72;;;;;;;-143.21;49.35;71287.00;5080432;28;20189;-80
2023/05/20 10:40:37;;;;;;;13.70;5.88;;;;;;;-143.21;48.25;71265.19;5090986;28;20279;-80
2023/05/20 10:43:12;;;;;;;8.25;5.55;;;;;;;-143.21;48.52;71288.97;5094800;28;20193;-80
2023/05/20 10:45:49;;;;;;;9.35;5.25;;;;;;;-143.21;48.88;71283.03;5096582;28;20197;-80
2023/05/20 10:48:27;;;;;;;8.23;5.10;;;;;;;-143.21;47.55;71285.03;5094754;28;20293;-80
2023/05/20 10:50:58;;;;;;;9.57;5.13;;;;;;;-143.21;47.71;71300.88;5093154;28;20208;-80
2023/05/20 10:53:26;;;;;;;8.50;5.47;;;;;;;-143.21;47.74;71292.94;5086618;28;20189;-80
2023/05/20 10:55:55;;;;;;;11.48;5.68;;;;;;;-143.21;47.78;71330.63;5090606;28;20209;-80
2023/05/20 10:58:22;;;;;;;10.90;5.30;;;;;;;-143.21;47.81;71318.72;5085486;28;20240;-81
2023/05/20 11:00:52;;;;;;;7.38;5.30;;;;;;;-143.21;47.96;71277.09;5081990;28;20280;-80
2023/05/20 11:03:21;;;;;;;9.40;5.28;;;;;;;-143.21;46.40;71261.22;5092803;28;20188;-80
2023/05/20 11:05:48;;;;;;;9.85;5.90;;;;;;;-143.21;46.95;71231.50;5074866;28;20261;-80
2023/05/20 11:08:16;;;;;;;8.38;6.43;;;;;;;-143.21;46.65;71217.59;5079818;28;20213;-80